Time;durP1;ratioP1;P1;durP2;ratioP2;P2;SDS_P1;SDS_P2;PMS_P1;PMS_P2;Temp;Humidity;BMP_temperature;BMP_pressure;BME280_temperature;BME280_humidity;BME280_pressure;Samples;Min_cycle;Max_cycle;Signal;HPM_P1;HPM_P2
2022/11/30 00:10:00;;;;;;;43.00;29.80;;;;;;;-2.25;98.89;100477.40;434818;1278;144129;-66
2022/11/30 00:20:08;;;;;;;38.00;27.70;;;;;;;-2.27;99.17;100480.84;432040;1287;144961;-66
2022/11/30 00:30:16;;;;;;;36.90;24.50;;;;;;;-2.24;98.95;100477.92;433952;1289;144973;-65
2022/11/30 00:40:21;;;;;;;36.10;25.50;;;;;;;-2.20;99.10;100479.30;434874;1278;146311;-66
2022/11/30 00:50:27;;;;;;;30.80;22.40;;;;;;;-2.23;99.08;100481.00;434670;1287;145100;-65
2022/11/30 01:00:33;;;;;;;35.10;25.00;;;;;;;-2.23;99.53;100481.70;433982;1288;143069;-66
2022/11/30 01:10:40;;;;;;;35.20;24.70;;;;;;;-2.19;99.33;100493.02;434736;1281;144639;-66
2022/11/30 01:20:46;;;;;;;35.00;24.80;;;;;;;-2.23;99.43;100495.25;431025;1286;151588;-66
2022/11/30 01:30:59;;;;;;;39.60;25.50;;;;;;;-2.30;99.64;100497.11;434860;1285;142751;-66
2022/11/30 01:41:06;;;;;;;35.50;25.30;;;;;;;-2.32;99.61;100502.08;434811;1286;143305;-66
2022/11/30 01:51:12;;;;;;;37.10;24.90;;;;;;;-2.31;99.69;100495.39;434057;1286;143461;-66
2022/11/30 02:01:18;;;;;;;42.80;27.00;;;;;;;-2.26;99.92;100493.17;434791;1288;143156;-66
2022/11/30 02:11:27;;;;;;;40.90;28.50;;;;;;;-2.21;99.98;100499.20;434761;1288;143207;-66
2022/11/30 02:21:41;;;;;;;40.60;27.40;;;;;;;-2.28;99.97;100510.49;434057;1286;143879;-67
2022/11/30 02:31:55;;;;;;;41.80;27.40;;;;;;;-2.30;100.00;100508.79;434602;1288;143907;-66
2022/11/30 02:42:00;;;;;;;37.70;22.80;;;;;;;-2.30;100.00;100510.83;433995;1286;145337;-66
2022/11/30 02:52:09;;;;;;;42.90;25.20;;;;;;;-2.32;100.00;100519.92;434815;1287;142834;-66
2022/11/30 03:02:14;;;;;;;45.90;25.50;;;;;;;-2.43;100.00;100518.49;434761;1286;143477;-66
2022/11/30 03:12:20;;;;;;;48.50;28.80;;;;;;;-2.46;100.00;100522.44;434108;1279;144389;-66
2022/11/30 03:22:26;;;;;;;36.60;22.10;;;;;;;-2.50;100.00;100533.73;430164;1278;145540;-67
2022/11/30 03:32:32;;;;;;;36.50;23.20;;;;;;;-2.59;100.00;100542.60;434763;1286;144771;-66
2022/11/30 03:42:37;;;;;;;39.60;26.40;;;;;;;-2.62;100.00;100538.30;433842;1286;143256;-67
2022/11/30 03:52:43;;;;;;;41.10;24.60;;;;;;;-2.57;100.00;100542.79;434677;1285;143550;-66
2022/11/30 04:02:49;;;;;;;46.30;28.00;;;;;;;-2.59;100.00;100548.60;433971;1286;143246;-67
2022/11/30 04:12:54;;;;;;;40.70;24.60;;;;;;;-2.62;100.00;100542.24;425883;1287;142326;-67
2022/11/30 04:23:01;;;;;;;33.70;23.50;;;;;;;-2.70;100.00;100547.17;429635;1287;142952;-66
2022/11/30 04:33:07;;;;;;;24.30;16.30;;;;;;;-2.68;100.00;100548.90;433912;1288;143576;-67
2022/11/30 04:43:13;;;;;;;34.80;25.00;;;;;;;-2.68;100.00;100555.08;434795;1288;144046;-66
2022/11/30 04:53:17;;;;;;;;;;;;;;;-2.63;100.00;100550.80;434779;1287;143814;-67
2022/11/30 05:03:23;;;;;;;30.60;21.00;;;;;;;-2.66;100.00;100562.27;429651;1287;188078;-67
2022/11/30 05:13:29;;;;;;;30.60;24.30;;;;;;;-2.70;100.00;100568.77;426114;1279;142519;-67
2022/11/30 05:23:35;;;;;;;33.10;22.30;;;;;;;-2.65;100.00;100569.66;423696;1280;142469;-65
2022/11/30 05:33:41;;;;;;;32.10;21.10;;;;;;;-2.65;100.00;100573.42;420775;1286;142777;-66
2022/11/30 05:43:46;;;;;;;29.60;20.00;;;;;;;-2.71;100.00;100575.97;423008;1285;142178;-66
2022/11/30 05:53:52;;;;;;;31.40;21.40;;;;;;;-2.68;100.00;100582.50;423746;1279;142088;-66
2022/11/30 06:03:59;;;;;;;33.20;21.70;;;;;;;-2.67;100.00;100597.93;434872;1286;143572;-66
2022/11/30 06:14:10;;;;;;;26.90;18.80;;;;;;;-2.68;100.00;100601.17;434650;1285;142882;-66
2022/11/30 06:24:16;;;;;;;27.90;19.10;;;;;;;-2.69;100.00;100605.11;431475;1288;143599;-66
2022/11/30 06:34:22;;;;;;;31.10;21.30;;;;;;;-2.67;100.00;100618.15;428205;1287;142804;-66
2022/11/30 06:44:28;;;;;;;29.20;22.50;;;;;;;-2.62;100.00;100624.69;434626;1286;187741;-66
2022/11/30 06:54:33;;;;;;;31.30;22.00;;;;;;;-2.56;100.00;100632.45;433874;1286;143299;-66
2022/11/30 07:04:39;;;;;;;27.30;20.20;;;;;;;-2.47;99.99;100635.42;434698;1292;144312;-66
2022/11/30 07:14:45;;;;;;;28.70;20.10;;;;;;;-2.41;100.00;100643.52;433983;1285;144482;-67
2022/11/30 07:35:14;;;;;;;31.00;21.00;;;;;;;-2.38;99.64;100654.70;432344;1288;142987;-67
2022/11/30 07:45:20;;;;;;;29.50;20.30;;;;;;;-2.31;99.78;100658.52;434201;1284;143650;-67
2022/11/30 07:55:26;;;;;;;32.40;25.50;;;;;;;-2.19;99.77;100657.55;434688;1289;144602;-67
2022/11/30 08:05:32;;;;;;;27.40;21.70;;;;;;;-2.08;99.73;100653.84;434693;1295;143999;-66
2022/11/30 08:15:37;;;;;;;28.00;19.60;;;;;;;-2.00;99.53;100649.58;434070;1290;142102;-66
2022/11/30 08:25:46;;;;;;;29.30;22.70;;;;;;;-1.93;99.33;100649.61;434759;1282;141975;-67
2022/11/30 08:35:52;;;;;;;26.70;20.40;;;;;;;-1.87;99.11;100657.03;422829;1285;143117;-66
2022/11/30 08:45:58;;;;;;;25.60;19.70;;;;;;;-1.81;98.80;100655.50;434791;1292;145672;-66
2022/11/30 08:56:07;;;;;;;26.10;20.50;;;;;;;-1.74;98.85;100652.77;427996;1287;143580;-67
2022/11/30 09:06:15;;;;;;;23.20;18.80;;;;;;;-1.62;98.52;100652.14;434010;1295;144719;-66
2022/11/30 09:16:21;;;;;;;24.30;18.50;;;;;;;-1.59;98.30;100654.55;434710;1285;144532;-67
2022/11/30 09:26:28;;;;;;;22.50;17.80;;;;;;;-1.52;97.68;100660.77;434859;1292;143288;-67
2022/11/30 09:36:35;;;;;;;25.00;18.60;;;;;;;-1.46;97.44;100661.47;434032;1292;143301;-67
2022/11/30 09:46:47;;;;;;;21.20;17.20;;;;;;;-1.43;97.49;100663.36;434785;1290;142480;-68
2022/11/30 09:56:53;;;;;;;24.30;18.70;;;;;;;-1.36;97.30;100668.00;434002;1292;144126;-67
2022/11/30 10:07:09;;;;;;;23.90;17.40;;;;;;;-1.36;97.03;100670.92;434843;1291;142879;-66
2022/11/30 10:17:22;;;;;;;;;;;;;;;-1.26;96.95;100670.77;434665;1292;142966;-66
2022/11/30 10:27:42;;;;;;;20.10;15.00;;;;;;;-1.36;96.30;100666.29;434329;1285;129655;-66
2022/11/30 10:37:50;;;;;;;23.10;17.20;;;;;;;-1.29;96.72;100665.45;430465;1285;143192;-67
2022/11/30 10:48:03;;;;;;;18.00;15.50;;;;;;;-1.26;96.37;100674.56;434113;1292;143639;-68
2022/11/30 10:58:19;;;;;;;23.40;18.10;;;;;;;-1.34;95.89;100673.52;434775;1292;143196;-67
2022/11/30 11:08:27;;;;;;;22.90;15.30;;;;;;;-1.11;96.24;100660.67;434759;1285;142132;-67
2022/11/30 11:18:34;;;;;;;19.00;14.30;;;;;;;-1.03;95.30;100666.17;434167;1292;144303;-67
2022/11/30 11:28:46;;;;;;;18.60;14.40;;;;;;;-1.10;95.07;100662.56;434870;1285;143378;-67
2022/11/30 11:38:52;;;;;;;19.20;15.00;;;;;;;-1.14;94.76;100667.54;427258;1287;142069;-67
2022/11/30 11:49:01;;;;;;;18.90;14.60;;;;;;;-1.20;94.96;100665.12;434826;1286;144018;-67
2022/11/30 11:59:17;;;;;;;19.40;14.60;;;;;;;-1.23;94.88;100665.46;432077;1287;142384;-67
2022/11/30 12:09:29;;;;;;;19.30;14.70;;;;;;;-1.21;94.73;100667.70;433929;1294;142355;-67
2022/11/30 12:19:42;;;;;;;17.00;13.40;;;;;;;-1.22;94.37;100669.58;434686;1285;143823;-67
2022/11/30 12:30:01;;;;;;;18.00;14.40;;;;;;;-1.20;94.20;100676.46;433980;1279;143371;-67
2022/11/30 12:40:23;;;;;;;16.50;12.80;;;;;;;-1.10;94.07;100683.87;433258;1286;183255;-67
2022/11/30 12:50:45;;;;;;;18.30;13.30;;;;;;;-1.03;93.82;100682.68;434837;1286;145982;-68
2022/11/30 13:01:08;;;;;;;14.00;11.30;;;;;;;-0.95;93.78;100682.00;434413;1286;142573;-67
2022/11/30 13:11:18;;;;;;;16.00;12.20;;;;;;;-0.93;93.29;100683.89;434851;1282;143179;-67
2022/11/30 13:21:30;;;;;;;17.30;12.20;;;;;;;-0.92;93.01;100682.36;433914;1289;144193;-67
2022/11/30 13:31:41;;;;;;;13.40;11.30;;;;;;;-0.93;92.67;100667.23;434893;1286;143327;-67
2022/11/30 13:41:49;;;;;;;16.40;14.30;;;;;;;-0.87;92.97;100664.48;433936;1279;166114;-67
2022/11/30 13:51:55;;;;;;;13.80;11.90;;;;;;;-0.81;92.81;100668.77;434653;1292;144076;-66
2022/11/30 14:02:53;;;;;;;15.70;13.00;;;;;;;-0.82;92.94;100675.14;432490;1287;144675;-67
2022/11/30 14:13:01;;;;;;;16.70;14.80;;;;;;;-0.81;92.91;100669.98;434440;1288;142842;-67
2022/11/30 14:23:11;;;;;;;24.40;15.80;;;;;;;-0.80;92.77;100677.02;434729;1288;142638;-67
2022/11/30 14:33:23;;;;;;;15.60;12.30;;;;;;;-0.79;92.63;100683.90;432864;1295;142071;-67
2022/11/30 14:43:30;;;;;;;18.20;14.10;;;;;;;-0.87;92.31;100684.23;434725;1281;143953;-68
2022/11/30 14:53:44;;;;;;;15.70;13.20;;;;;;;-0.87;92.48;100684.58;434844;1286;142727;-67
2022/11/30 15:03:52;;;;;;;17.00;12.50;;;;;;;-0.84;92.43;100684.92;434434;1283;142890;-67
2022/11/30 15:14:10;;;;;;;14.30;11.30;;;;;;;-0.82;92.34;100689.73;434873;1286;142760;-66
2022/11/30 15:24:16;;;;;;;20.90;14.10;;;;;;;-0.88;92.04;100685.10;434099;1282;143397;-66
2022/11/30 15:34:31;;;;;;;16.90;13.10;;;;;;;-0.91;92.14;100680.45;431014;1287;142535;-66
2022/11/30 15:44:44;;;;;;;13.80;11.80;;;;;;;-0.94;91.70;100687.84;430368;1288;143081;-67
2022/11/30 15:54:54;;;;;;;18.10;14.10;;;;;;;-0.99;92.22;100688.70;434341;1286;200135;-67
2022/11/30 16:05:22;;;;;;;15.10;12.50;;;;;;;-1.01;92.60;100689.72;421849;1286;142065;-66
2022/11/30 16:15:33;;;;;;;18.10;14.50;;;;;;;-1.12;92.17;100697.96;431692;1288;142908;-66
2022/11/30 16:25:39;;;;;;;12.60;10.40;;;;;;;-1.25;92.27;100705.84;434591;1289;197075;-67
2022/11/30 16:35:53;;;;;;;15.50;12.00;;;;;;;-1.37;92.15;100707.88;433791;1283;143447;-65
2022/11/30 16:46:01;;;;;;;20.20;15.30;;;;;;;-1.39;91.87;100710.09;434566;1278;143354;-66
2022/11/30 16:56:11;;;;;;;20.00;15.30;;;;;;;-1.39;92.01;100715.77;423239;1285;142318;-65
2022/11/30 17:06:20;;;;;;;18.80;14.00;;;;;;;-1.43;91.91;100723.48;426175;1281;142661;-67
2022/11/30 17:16:27;;;;;;;15.90;12.20;;;;;;;-1.42;92.09;100731.39;427082;1281;143360;-66
2022/11/30 17:26:33;;;;;;;16.80;13.40;;;;;;;-1.35;92.28;100735.36;434452;1289;142483;-67
2022/11/30 17:36:39;;;;;;;14.80;11.30;;;;;;;-1.30;92.40;100736.40;433180;1284;144626;-66
2022/11/30 17:46:57;;;;;;;17.50;14.10;;;;;;;-1.24;92.56;100735.05;434295;1282;143589;-67
2022/11/30 17:57:04;;;;;;;16.00;12.40;;;;;;;-1.18;92.50;100741.26;420887;1286;143271;-66
2022/11/30 18:07:12;;;;;;;19.00;13.80;;;;;;;-1.13;92.69;100751.23;425668;1285;142440;-67
2022/11/30 18:17:21;;;;;;;16.30;12.70;;;;;;;-1.12;92.71;100748.83;432137;1272;143453;-65
2022/11/30 18:27:31;;;;;;;18.40;14.00;;;;;;;-1.08;93.00;100750.55;433779;1286;142896;-64
2022/11/30 18:37:36;;;;;;;;;;;;;;;-1.03;92.91;100753.84;434495;1281;142615;-64
2022/11/30 18:47:43;;;;;;;18.70;14.30;;;;;;;-1.02;92.76;100755.91;434067;1286;129055;-67
2022/11/30 18:57:50;;;;;;;18.20;14.20;;;;;;;-1.03;92.67;100767.77;434514;1294;142897;-65
2022/11/30 19:07:57;;;;;;;17.00;14.00;;;;;;;-1.05;92.69;100766.20;432483;1288;142503;-67
2022/11/30 19:18:04;;;;;;;23.30;16.10;;;;;;;-1.03;92.56;100772.74;432532;1286;143682;-64
2022/11/30 19:28:13;;;;;;;19.90;15.30;;;;;;;-1.00;92.68;100775.49;422110;1289;142709;-64
2022/11/30 19:38:23;;;;;;;18.40;14.40;;;;;;;-1.03;92.75;100779.62;427128;1286;144027;-65
2022/11/30 19:48:30;;;;;;;19.30;15.50;;;;;;;-1.02;92.87;100778.08;433563;1286;144951;-65
2022/11/30 19:58:50;;;;;;;18.30;14.20;;;;;;;-0.96;92.61;100783.76;434326;1280;142633;-66
2022/11/30 20:08:59;;;;;;;19.80;16.10;;;;;;;-0.91;92.67;100787.39;433871;1279;143059;-65
2022/11/30 20:19:25;;;;;;;19.40;14.40;;;;;;;-0.84;92.59;100795.14;434536;1286;143041;-65
2022/11/30 20:29:41;;;;;;;17.80;15.10;;;;;;;-0.81;92.81;100799.78;427204;1279;144281;-65
2022/11/30 20:40:11;;;;;;;19.90;14.90;;;;;;;-0.77;92.63;100800.31;428547;1287;143537;-64
2022/11/30 20:50:36;;;;;;;19.20;13.70;;;;;;;-0.74;92.61;100801.70;434526;1292;143674;-65
2022/11/30 21:00:49;;;;;;;21.60;17.50;;;;;;;-0.69;92.72;100801.20;433950;1286;198057;-65
2022/11/30 21:11:04;;;;;;;19.40;15.80;;;;;;;-0.67;92.62;100802.06;424117;1286;144414;-65
2022/11/30 21:21:32;;;;;;;20.30;15.20;;;;;;;-0.65;92.67;100796.03;433540;1289;146400;-64
2022/11/30 21:31:44;;;;;;;17.80;13.80;;;;;;;-0.62;92.82;100795.70;432948;1285;144416;-64
2022/11/30 21:42:09;;;;;;;20.00;16.10;;;;;;;-0.55;92.82;100792.10;420734;1279;142981;-64
2022/11/30 21:52:16;;;;;;;24.20;17.80;;;;;;;-0.54;92.66;100785.73;432765;1286;142769;-64
2022/11/30 22:02:42;;;;;;;20.00;14.90;;;;;;;-0.51;92.64;100782.13;431799;1279;144385;-64
2022/11/30 22:12:59;;;;;;;18.30;14.80;;;;;;;-0.49;92.42;100779.02;424758;1286;206920;-65
2022/11/30 22:23:13;;;;;;;17.10;14.60;;;;;;;-0.46;92.37;100777.66;433561;1286;142739;-64
2022/11/30 22:33:40;;;;;;;19.00;14.30;;;;;;;-0.41;92.16;100775.08;425619;1287;143024;-64
2022/11/30 22:43:48;;;;;;;18.80;13.70;;;;;;;-0.37;91.95;100773.36;433804;1285;142260;-64
2022/11/30 22:54:04;;;;;;;17.30;13.30;;;;;;;-0.32;92.07;100774.55;422886;1287;143902;-65
2022/11/30 23:04:13;;;;;;;16.10;13.10;;;;;;;-0.31;91.66;100775.94;434646;1289;144460;-64
2022/11/30 23:14:39;;;;;;;16.60;12.30;;;;;;;-0.32;91.31;100780.41;434611;1288;145033;-65
2022/11/30 23:25:01;;;;;;;15.20;12.70;;;;;;;-0.30;91.23;100778.18;430501;1289;199564;-64
2022/11/30 23:35:26;;;;;;;16.10;12.30;;;;;;;-0.27;91.17;100763.04;434652;1288;142674;-64
2022/11/30 23:45:33;;;;;;;16.90;12.10;;;;;;;-0.23;91.25;100761.30;433958;1285;142511;-64
2022/11/30 23:56:04;;;;;;;17.90;14.10;;;;;;;-0.19;91.01;100757.34;434734;1286;143321;-64
